KLSE/LSE METAR and TAF weather

Enter ICAO airport designator
Station Type Date Time Source
KLSE METAR 2019/04/19 07:53 UTC NOAA

KLSE 190753Z AUTO 34008KT 10SM CLR 04/02 A2994 RMK AO2 SLP145 T00440017


Station Type Date Time Source
KLSE Decoded METAR 2019/04/19 07:53 UTC NOAA

LA CROSSE MUNICIPAL AIRPORT , WI, United States (KLSE) 43-53N 091-15W 200M
Apr 19, 2019 - 03:53 AM EDT / 2019.04.19 0753 UTC
Wind: from the NNW (340 degrees) at 9 MPH (8 KT):0
Visibility: 10 mile(s):0
Sky conditions: clear
Temperature: 39.9 F (4.4 C)
Dew Point: 35.1 F (1.7 C)
Relative Humidity: 82%
Pressure (altimeter): 29.94 in. Hg (1013 hPa)
ob: KLSE 190753Z AUTO 34008KT 10SM CLR 04/02 A2994 RMK AO2 SLP145 T00440017
cycle: 8

Station Type Date Time Source
KLSE TAF 2019/04/19 06:22 UTC NOAA

TAF KLSE 190520Z 1906/2006 35005KT P6SM SKC
FM191700 35010KT P6SM SKC
FM200000 VRB03KT P6SM SKC

Example: see airport list